Aviation Digital Data Service (ADDS)

Output produced by METARs form (0732 UTC 03 August 2021)
found at http://www.aviationweather.gov/metar/data/
 
KIPT 030654Z AUTO 34003KT 10SM BKN075 13/11 A3012 RMK AO2 SLP199 T01330111
KIPT 030554Z AUTO 33003KT 10SM CLR 13/12 A3012 RMK AO2 SLP198 T01330117 10222 20133 51012
KIPT 030454Z AUTO 33003KT 10SM CLR 14/12 A3012 RMK AO2 SLP198 T01390117 402670139
KIPT 030354Z AUTO 00000KT 10SM CLR 15/12 A3011 RMK AO2 SLP193 T01500122
KIPT 030254Z AUTO 00000KT 10SM CLR 16/12 A3009 RMK AO2 SLP186 T01560122 51015
KIPT 030154Z 00000KT 10SM CLR 17/13 A3008 RMK AO2 SLP183 T01720128
KIPT 030054Z 00000KT 10SM CLR 18/13 A3006 RMK AO2 SLP177 T01830128
KIPT 022354Z 00000KT 10SM CLR 22/12 A3004 RMK AO2 SLP171 T02220117 10267 20222 53007
KIPT 022254Z 34006KT 10SM CLR 25/09 A3003 RMK AO2 SLP167 T02500094
KIPT 022154Z 32007KT 10SM CLR 26/09 A3003 RMK AO2 SLP165 T02560089
KIPT 022054Z 32009KT 10SM SCT070 25/08 A3002 RMK AO2 SLP164 T02500083 55002
KIPT 021954Z 35007G14KT 320V040 10SM SCT075 27/09 A3002 RMK AO2 SLP163 T02670089
KIPT 021854Z 36005KT 10SM SCT075 26/09 A3003 RMK AO2 SLP165 T02560089
KIPT 021754Z 10SM BKN070 24/09 A3003 RMK AO2 SLP167 T02440089 10256 20161 58004
KIPT 021654Z 36008KT 10SM BKN065 24/10 A3003 RMK AO2 SLP168 T02440100
KIPT 021554Z 27007KT 10SM FEW041 BKN055 23/13 A3004 RMK AO2 SLP170 T02280128
KIPT 021454Z 33006KT 10SM FEW030 SCT037 22/13 A3004 RMK AO2 SLP170 T02220128 51013
KIPT 021430Z 28005KT 10SM SCT026 BKN033 OVC041 20/13 A3004 RMK AO2 T02000133
KIPT 021417Z 27007KT 10SM BKN024 BKN034 19/13 A3003 RMK AO2 T01940133
KIPT 021354Z 26006KT 10SM SCT022 SCT030 BKN039 20/14 A3003 RMK AO2 SLP166 T02000139
KIPT 021254Z 26008KT 10SM FEW035 18/14 A3002 RMK AO2 SLP163 T01830144
KIPT 021154Z 26008KT 10SM FEW026 OVC033 16/14 A3000 RMK AO2 SLP159 70040 T01610139 10161 20156 51014
KIPT 021110Z 27007KT 10SM BKN027 OVC035 16/13 A2999 RMK AO2 T01610133
KIPT 021054Z 27006KT 10SM FEW024 BKN033 OVC046 16/13 A2998 RMK AO2 SLP152 T01610133
KIPT 020954Z AUTO 26005KT 10SM FEW006 BKN026 OVC037 16/14 A2996 RMK AO2 SLP145 T01560144
KIPT 020926Z AUTO 27006KT 10SM FEW006 BKN026 16/14 A2996 RMK AO2 T01560144
KIPT 020854Z AUTO 26006KT 10SM OVC024 16/14 A2994 RMK AO2 SLP138 T01560139 53008
KIPT 020833Z AUTO 27005KT 10SM SCT007 BKN026 16/14 A2994 RMK AO2 T01560139
KIPT 020823Z AUTO 27006KT 10SM BKN007 BKN026 16/14 A2994 RMK AO2 T01560139
KIPT 020816Z AUTO 26006KT 10SM FEW007 SCT026 16/14 A2994 RMK AO2 T01560139
KIPT 020804Z AUTO 27009KT 10SM SCT023 16/14 A2993 RMK AO2 T01560139
KIPT 020754Z AUTO 26009KT 10SM FEW005 BKN023 16/14 A2993 RMK AO2 SLP131 T01560139
KIPT 020747Z AUTO 27008KT 10SM FEW007 OVC024 16/14 A2993 RMK AO2 T01560144
KIPT 020733Z AUTO 28008KT 10SM BKN007 OVC025 16/14 A2993 RMK AO2 CIG 004V009 T01560144
KIPT 020654Z AUTO 27008KT 10SM OVC005 16/14 A2992 RMK AO2 SLP128 T01610144
KIPT 020652Z AUTO 27008KT 10SM OVC005 16/14 A2992 RMK AO2
KIPT 020602Z AUTO 27007KT 9SM OVC004 16/15 A2991 RMK AO2 CIG 003V009 T01610150
KIPT 020554Z AUTO 26008KT 8SM OVC005 16/15 A2991 RMK AO2 CIG 003V009 SLP124 T01610150 10172 20156 51002
KIPT 020536Z AUTO 27006KT 9SM OVC005 16/15 A2991 RMK AO2 T01610150
KIPT 020454Z AUTO 00000KT 10SM OVC006 16/14 A2991 RMK AO2 SLP123 T01610144 402720139
KIPT 020413Z AUTO 00000KT 9SM BKN006 OVC023 16/14 A2991 RMK AO2 CIG 004V008 T01610144
KIPT 020354Z AUTO 00000KT 9SM SCT006 OVC023 16/14 A2991 RMK AO2 SLP125 T01610144
KIPT 020335Z AUTO 00000KT 10SM SCT006 BKN020 16/14 A2991 RMK AO2 T01610144
KIPT 020320Z AUTO 00000KT 10SM FEW003 SCT020 16/14 A2990 RMK AO2 T01560144
KIPT 020309Z AUTO 00000KT 10SM FEW003 BKN021 16/14 A2990 RMK AO2 T01560144
KIPT 020254Z AUTO 00000KT 9SM FEW004 16/14 A2990 RMK AO2 SLP123 T01560144 50015
KIPT 020154Z 00000KT 9SM CLR 16/14 A2991 RMK AO2 SLP126 T01610144
KIPT 020108Z 29004KT 10SM FEW021 16/14 A2989 RMK AO2 T01610144
KIPT 020054Z 29003KT 10SM BKN021 17/15 A2989 RMK AO2 SLP119 T01670150
KIPT 020037Z 25005KT 10SM BKN020 17/15 A2988 RMK AO2 T01720150
KIPT 012354Z 27004KT 10SM CLR 17/15 A2986 RMK AO2 SLP108 60040 T01720150 10272 20167 55005
KIPT 012254Z 24005KT 10SM BKN110 18/14 A2983 RMK AO2 RAE19 SLP099 P0003 T01780144
KIPT 012224Z 20005KT 10SM FEW008 SCT080 OVC100 17/15 A2983 RMK AO2 RAE19 P0003 T01720150
KIPT 012154Z 28004KT 3SM RA BR SCT075 OVC090 17/14 A2986 RMK AO2 LTG DSNT NE AND E RAB2056 TSB00E28 SLP110 P0037 T01670144
KIPT 012144Z 25004KT 2 1/2SM RA BR FEW050 BKN075 OVC095 17/15 A2986 RMK AO2 LTG DSNT NE AND E RAB2056 TSB00E28 P0033 T01670150
KIPT 012128Z 24004KT 3SM RA BR SCT050 BKN070 OVC095 17/14 A2986 RMK AO2 LTG DSNT NE AND E RAB2056 TSB00E28 TS NW MOV SE P0029 T01670144
KIPT 012101Z 29009G18KT 1 3/4SM +TSRA FEW030 BKN048 OVC060 18/13 A2987 RMK AO2 LTG DSNT N AND NE AND SW RAB2056 TSB00 TS NW MOV SE P0002 T01780133
KIPT 012054Z 24007G23KT 200V260 9SM VCTS FEW040 SCT048 OVC060 19/13 A2987 RMK AO2 PK WND 32033/2041 WSHFT 2036 LTG DSNT ALQDS SLP114 T01940128 53019
KIPT 012047Z 32014G33KT 10SM VCTS FEW037 BKN049 BKN060 21/13 A2983 RMK AO2 PK WND 32033/2041 LTG DSNT NE AND SW AND W PRESRR T02060128
KIPT 011954Z 14007KT 10SM BKN060 BKN070 26/14 A2977 RMK AO2 LTG DSNT N AND NW SLP080 T02610144
KIPT 030524Z 0306/0406 VRB03KT P6SM SKC 
     FM031900 VRB03KT P6SM BKN060